sensor_id;sensor_type;location;lat;lon;timestamp;P1;durP1;ratioP1;P2;durP2;ratioP2
66129;SDS011;52930;51.464;11.764;2022-08-06T00:02:15;3.93;;;1.40;;
66129;SDS011;52930;51.464;11.764;2022-08-06T00:04:40;4.57;;;1.43;;
66129;SDS011;52930;51.464;11.764;2022-08-06T00:07:05;6.32;;;1.30;;
66129;SDS011;52930;51.464;11.764;2022-08-06T00:09:31;4.50;;;1.43;;
66129;SDS011;52930;51.464;11.764;2022-08-06T00:11:58;4.78;;;1.35;;
66129;SDS011;52930;51.464;11.764;2022-08-06T00:14:25;3.50;;;1.33;;
66129;SDS011;52930;51.464;11.764;2022-08-06T00:16:51;4.85;;;1.35;;
66129;SDS011;52930;51.464;11.764;2022-08-06T00:19:16;3.70;;;1.33;;
66129;SDS011;52930;51.464;11.764;2022-08-06T00:21:41;4.60;;;1.23;;
66129;SDS011;52930;51.464;11.764;2022-08-06T00:24:07;4.68;;;1.20;;
66129;SDS011;52930;51.464;11.764;2022-08-06T00:26:32;4.53;;;1.27;;
66129;SDS011;52930;51.464;11.764;2022-08-06T00:28:58;4.00;;;1.00;;
66129;SDS011;52930;51.464;11.764;2022-08-06T00:31:23;5.30;;;1.07;;
66129;SDS011;52930;51.464;11.764;2022-08-06T00:33:48;5.07;;;0.80;;
66129;SDS011;52930;51.464;11.764;2022-08-06T00:36:14;3.53;;;0.80;;
66129;SDS011;52930;51.464;11.764;2022-08-06T00:38:39;3.13;;;0.90;;
66129;SDS011;52930;51.464;11.764;2022-08-06T00:41:04;2.97;;;0.77;;
66129;SDS011;52930;51.464;11.764;2022-08-06T00:43:30;3.43;;;0.80;;
66129;SDS011;52930;51.464;11.764;2022-08-06T00:45:55;2.85;;;0.80;;
66129;SDS011;52930;51.464;11.764;2022-08-06T00:48:21;4.77;;;1.13;;
66129;SDS011;52930;51.464;11.764;2022-08-06T00:50:46;3.27;;;1.00;;
66129;SDS011;52930;51.464;11.764;2022-08-06T00:53:12;5.37;;;0.90;;
66129;SDS011;52930;51.464;11.764;2022-08-06T00:55:37;4.10;;;0.90;;
66129;SDS011;52930;51.464;11.764;2022-08-06T00:58:03;4.15;;;0.80;;
66129;SDS011;52930;51.464;11.764;2022-08-06T01:00:29;4.72;;;0.90;;
66129;SDS011;52930;51.464;11.764;2022-08-06T01:02:54;3.80;;;0.93;;
66129;SDS011;52930;51.464;11.764;2022-08-06T01:05:19;4.27;;;0.87;;
66129;SDS011;52930;51.464;11.764;2022-08-06T01:07:45;3.93;;;1.10;;
66129;SDS011;52930;51.464;11.764;2022-08-06T01:10:10;6.47;;;0.90;;
66129;SDS011;52930;51.464;11.764;2022-08-06T01:12:35;3.90;;;1.10;;
66129;SDS011;52930;51.464;11.764;2022-08-06T01:15:02;3.83;;;0.77;;
66129;SDS011;52930;51.464;11.764;2022-08-06T01:29:09;5.80;;;1.08;;
66129;SDS011;52930;51.464;11.764;2022-08-06T01:31:43;4.03;;;1.00;;
66129;SDS011;52930;51.464;11.764;2022-08-06T01:34:14;4.22;;;0.80;;
66129;SDS011;52930;51.464;11.764;2022-08-06T01:39:49;5.25;;;0.93;;
66129;SDS011;52930;51.464;11.764;2022-08-06T01:42:15;3.22;;;0.90;;
66129;SDS011;52930;51.464;11.764;2022-08-06T01:44:43;4.30;;;0.95;;
66129;SDS011;52930;51.464;11.764;2022-08-06T01:47:12;3.92;;;1.13;;
66129;SDS011;52930;51.464;11.764;2022-08-06T01:49:39;3.03;;;1.10;;
66129;SDS011;52930;51.464;11.764;2022-08-06T01:52:06;3.33;;;0.80;;
66129;SDS011;52930;51.464;11.764;2022-08-06T01:54:34;3.15;;;0.85;;
66129;SDS011;52930;51.464;11.764;2022-08-06T01:57:02;7.65;;;0.90;;
66129;SDS011;52930;51.464;11.764;2022-08-06T01:59:30;4.25;;;0.98;;
66129;SDS011;52930;51.464;11.764;2022-08-06T02:01:58;4.57;;;0.95;;
66129;SDS011;52930;51.464;11.764;2022-08-06T02:04:26;4.05;;;0.90;;
66129;SDS011;52930;51.464;11.764;2022-08-06T02:06:53;3.50;;;1.00;;
66129;SDS011;52930;51.464;11.764;2022-08-06T02:09:20;3.05;;;1.00;;
66129;SDS011;52930;51.464;11.764;2022-08-06T02:12:30;3.33;;;0.82;;
66129;SDS011;52930;51.464;11.764;2022-08-06T02:14:38;3.10;;;1.00;;
66129;SDS011;52930;51.464;11.764;2022-08-06T02:17:06;3.85;;;1.10;;
66129;SDS011;52930;51.464;11.764;2022-08-06T02:19:31;3.13;;;0.90;;
66129;SDS011;52930;51.464;11.764;2022-08-06T02:21:57;3.27;;;1.00;;
66129;SDS011;52930;51.464;11.764;2022-08-06T02:24:25;3.95;;;0.80;;
66129;SDS011;52930;51.464;11.764;2022-08-06T02:26:52;2.95;;;0.68;;
66129;SDS011;52930;51.464;11.764;2022-08-06T02:29:18;4.75;;;0.85;;
66129;SDS011;52930;51.464;11.764;2022-08-06T02:31:44;5.03;;;0.90;;
66129;SDS011;52930;51.464;11.764;2022-08-06T02:34:09;3.15;;;1.00;;
66129;SDS011;52930;51.464;11.764;2022-08-06T02:36:42;3.87;;;0.70;;
66129;SDS011;52930;51.464;11.764;2022-08-06T02:39:17;3.35;;;0.98;;
66129;SDS011;52930;51.464;11.764;2022-08-06T02:41:49;2.60;;;0.80;;
66129;SDS011;52930;51.464;11.764;2022-08-06T02:44:36;3.28;;;1.02;;
66129;SDS011;52930;51.464;11.764;2022-08-06T02:49:43;3.20;;;0.70;;
66129;SDS011;52930;51.464;11.764;2022-08-06T02:52:16;5.05;;;0.93;;
66129;SDS011;52930;51.464;11.764;2022-08-06T02:54:56;3.15;;;0.85;;
66129;SDS011;52930;51.464;11.764;2022-08-06T02:57:24;4.65;;;1.10;;
66129;SDS011;52930;51.464;11.764;2022-08-06T02:59:55;3.27;;;0.90;;
66129;SDS011;52930;51.464;11.764;2022-08-06T03:02:24;5.82;;;0.90;;
66129;SDS011;52930;51.464;11.764;2022-08-06T03:04:50;2.72;;;0.73;;
66129;SDS011;52930;51.464;11.764;2022-08-06T03:07:15;4.50;;;1.00;;
66129;SDS011;52930;51.464;11.764;2022-08-06T03:09:44;6.63;;;1.20;;
66129;SDS011;52930;51.464;11.764;2022-08-06T03:12:11;3.60;;;1.00;;
66129;SDS011;52930;51.464;11.764;2022-08-06T03:14:38;3.85;;;1.00;;
66129;SDS011;52930;51.464;11.764;2022-08-06T03:17:05;3.10;;;1.00;;
66129;SDS011;52930;51.464;11.764;2022-08-06T03:19:31;7.22;;;1.20;;
66129;SDS011;52930;51.464;11.764;2022-08-06T03:21:57;4.53;;;0.95;;
66129;SDS011;52930;51.464;11.764;2022-08-06T03:24:23;3.35;;;1.23;;
66129;SDS011;52930;51.464;11.764;2022-08-06T03:26:49;4.13;;;0.85;;
66129;SDS011;52930;51.464;11.764;2022-08-06T03:29:16;5.90;;;1.23;;
66129;SDS011;52930;51.464;11.764;2022-08-06T03:31:41;4.78;;;1.08;;
66129;SDS011;52930;51.464;11.764;2022-08-06T03:34:07;4.70;;;1.10;;
66129;SDS011;52930;51.464;11.764;2022-08-06T03:36:33;4.97;;;1.27;;
66129;SDS011;52930;51.464;11.764;2022-08-06T03:39:03;3.97;;;0.90;;
66129;SDS011;52930;51.464;11.764;2022-08-06T03:41:32;3.60;;;1.20;;
66129;SDS011;52930;51.464;11.764;2022-08-06T03:44:00;3.63;;;1.00;;
66129;SDS011;52930;51.464;11.764;2022-08-06T03:46:34;4.30;;;0.80;;
66129;SDS011;52930;51.464;11.764;2022-08-06T03:49:10;3.20;;;0.70;;
66129;SDS011;52930;51.464;11.764;2022-08-06T03:51:39;3.65;;;1.30;;
66129;SDS011;52930;51.464;11.764;2022-08-06T03:54:06;2.88;;;0.98;;
66129;SDS011;52930;51.464;11.764;2022-08-06T03:56:32;4.47;;;1.20;;
66129;SDS011;52930;51.464;11.764;2022-08-06T03:59:00;4.30;;;0.90;;
66129;SDS011;52930;51.464;11.764;2022-08-06T04:01:27;4.13;;;1.00;;
66129;SDS011;52930;51.464;11.764;2022-08-06T04:03:52;3.83;;;0.90;;
66129;SDS011;52930;51.464;11.764;2022-08-06T04:06:19;4.50;;;1.00;;
66129;SDS011;52930;51.464;11.764;2022-08-06T04:08:45;3.40;;;1.00;;
66129;SDS011;52930;51.464;11.764;2022-08-06T04:11:11;5.22;;;1.02;;
66129;SDS011;52930;51.464;11.764;2022-08-06T04:13:37;3.72;;;0.90;;
66129;SDS011;52930;51.464;11.764;2022-08-06T04:16:03;5.05;;;1.08;;
66129;SDS011;52930;51.464;11.764;2022-08-06T04:18:30;3.83;;;0.95;;
66129;SDS011;52930;51.464;11.764;2022-08-06T04:21:00;3.65;;;1.20;;
66129;SDS011;52930;51.464;11.764;2022-08-06T04:23:29;4.00;;;1.30;;
66129;SDS011;52930;51.464;11.764;2022-08-06T04:25:55;3.80;;;0.93;;
66129;SDS011;52930;51.464;11.764;2022-08-06T04:28:23;7.13;;;1.08;;
66129;SDS011;52930;51.464;11.764;2022-08-06T04:30:49;3.63;;;1.20;;
66129;SDS011;52930;51.464;11.764;2022-08-06T04:33:16;4.25;;;1.00;;
66129;SDS011;52930;51.464;11.764;2022-08-06T04:35:44;5.60;;;1.30;;
66129;SDS011;52930;51.464;11.764;2022-08-06T04:38:09;3.23;;;1.10;;
66129;SDS011;52930;51.464;11.764;2022-08-06T04:40:36;5.47;;;0.98;;
66129;SDS011;52930;51.464;11.764;2022-08-06T04:43:04;3.63;;;0.80;;
66129;SDS011;52930;51.464;11.764;2022-08-06T04:45:30;4.93;;;1.23;;
66129;SDS011;52930;51.464;11.764;2022-08-06T04:47:56;4.28;;;1.33;;
66129;SDS011;52930;51.464;11.764;2022-08-06T04:50:21;3.23;;;1.10;;
66129;SDS011;52930;51.464;11.764;2022-08-06T04:52:46;3.10;;;1.00;;
66129;SDS011;52930;51.464;11.764;2022-08-06T04:55:12;5.17;;;1.00;;
66129;SDS011;52930;51.464;11.764;2022-08-06T04:57:37;4.73;;;1.40;;
66129;SDS011;52930;51.464;11.764;2022-08-06T05:00:03;3.10;;;1.20;;
66129;SDS011;52930;51.464;11.764;2022-08-06T05:02:29;3.88;;;0.80;;
66129;SDS011;52930;51.464;11.764;2022-08-06T05:04:54;3.33;;;1.00;;
66129;SDS011;52930;51.464;11.764;2022-08-06T05:07:25;4.43;;;1.27;;
66129;SDS011;52930;51.464;11.764;2022-08-06T05:09:53;5.00;;;1.17;;
66129;SDS011;52930;51.464;11.764;2022-08-06T05:12:25;3.20;;;0.80;;
66129;SDS011;52930;51.464;11.764;2022-08-06T05:17:19;2.28;;;0.60;;
66129;SDS011;52930;51.464;11.764;2022-08-06T05:19:55;3.70;;;0.85;;
66129;SDS011;52930;51.464;11.764;2022-08-06T05:22:23;2.85;;;0.70;;
66129;SDS011;52930;51.464;11.764;2022-08-06T05:24:50;2.90;;;0.53;;
66129;SDS011;52930;51.464;11.764;2022-08-06T05:27:17;5.13;;;0.90;;
66129;SDS011;52930;51.464;11.764;2022-08-06T05:29:43;3.05;;;0.60;;
66129;SDS011;52930;51.464;11.764;2022-08-06T05:32:08;3.97;;;0.70;;
66129;SDS011;52930;51.464;11.764;2022-08-06T05:34:34;5.30;;;0.80;;
66129;SDS011;52930;51.464;11.764;2022-08-06T05:37:00;5.70;;;0.83;;
66129;SDS011;52930;51.464;11.764;2022-08-06T05:39:25;4.27;;;0.70;;
66129;SDS011;52930;51.464;11.764;2022-08-06T05:41:50;4.50;;;0.97;;
66129;SDS011;52930;51.464;11.764;2022-08-06T05:44:16;3.37;;;0.70;;
66129;SDS011;52930;51.464;11.764;2022-08-06T05:46:44;2.90;;;0.63;;
66129;SDS011;52930;51.464;11.764;2022-08-06T05:49:13;2.78;;;0.80;;
66129;SDS011;52930;51.464;11.764;2022-08-06T05:56:51;4.10;;;0.90;;
66129;SDS011;52930;51.464;11.764;2022-08-06T05:59:23;3.53;;;0.52;;
66129;SDS011;52930;51.464;11.764;2022-08-06T06:01:50;4.05;;;0.75;;
66129;SDS011;52930;51.464;11.764;2022-08-06T06:04:16;3.03;;;0.60;;
66129;SDS011;52930;51.464;11.764;2022-08-06T06:06:42;3.42;;;1.10;;
66129;SDS011;52930;51.464;11.764;2022-08-06T06:09:08;2.37;;;0.60;;
66129;SDS011;52930;51.464;11.764;2022-08-06T06:11:34;3.60;;;0.60;;
66129;SDS011;52930;51.464;11.764;2022-08-06T06:14:01;4.60;;;0.80;;
66129;SDS011;52930;51.464;11.764;2022-08-06T06:16:29;5.50;;;0.82;;
66129;SDS011;52930;51.464;11.764;2022-08-06T06:19:18;3.50;;;0.70;;
66129;SDS011;52930;51.464;11.764;2022-08-06T06:24:42;5.30;;;0.83;;
66129;SDS011;52930;51.464;11.764;2022-08-06T06:27:19;2.90;;;0.70;;
66129;SDS011;52930;51.464;11.764;2022-08-06T06:29:52;4.20;;;0.90;;
66129;SDS011;52930;51.464;11.764;2022-08-06T06:32:29;3.03;;;0.80;;
66129;SDS011;52930;51.464;11.764;2022-08-06T06:37:50;3.80;;;0.60;;
66129;SDS011;52930;51.464;11.764;2022-08-06T06:43:08;3.17;;;0.75;;
66129;SDS011;52930;51.464;11.764;2022-08-06T06:48:31;4.38;;;0.70;;
66129;SDS011;52930;51.464;11.764;2022-08-06T06:51:01;4.13;;;0.90;;
66129;SDS011;52930;51.464;11.764;2022-08-06T06:53:30;3.45;;;0.60;;
66129;SDS011;52930;51.464;11.764;2022-08-06T06:55:57;4.15;;;0.90;;
66129;SDS011;52930;51.464;11.764;2022-08-06T06:58:34;3.25;;;0.60;;
66129;SDS011;52930;51.464;11.764;2022-08-06T07:01:03;3.97;;;0.60;;
66129;SDS011;52930;51.464;11.764;2022-08-06T07:03:30;4.00;;;0.43;;
66129;SDS011;52930;51.464;11.764;2022-08-06T07:05:58;3.10;;;0.70;;
66129;SDS011;52930;51.464;11.764;2022-08-06T07:08:24;5.25;;;0.98;;
66129;SDS011;52930;51.464;11.764;2022-08-06T07:10:51;4.77;;;0.70;;
66129;SDS011;52930;51.464;11.764;2022-08-06T07:13:17;4.03;;;0.73;;
66129;SDS011;52930;51.464;11.764;2022-08-06T07:15:44;3.13;;;0.60;;
66129;SDS011;52930;51.464;11.764;2022-08-06T07:18:10;4.70;;;0.73;;
66129;SDS011;52930;51.464;11.764;2022-08-06T07:20:36;2.45;;;0.50;;
66129;SDS011;52930;51.464;11.764;2022-08-06T07:23:06;2.97;;;0.70;;
66129;SDS011;52930;51.464;11.764;2022-08-06T07:25:37;7.00;;;0.83;;
66129;SDS011;52930;51.464;11.764;2022-08-06T07:28:05;4.05;;;0.63;;
66129;SDS011;52930;51.464;11.764;2022-08-06T07:30:32;3.63;;;0.70;;
66129;SDS011;52930;51.464;11.764;2022-08-06T07:32:58;3.00;;;0.60;;
66129;SDS011;52930;51.464;11.764;2022-08-06T07:35:24;3.58;;;0.70;;
66129;SDS011;52930;51.464;11.764;2022-08-06T07:37:53;4.38;;;0.68;;
66129;SDS011;52930;51.464;11.764;2022-08-06T07:40:42;4.13;;;0.50;;
66129;SDS011;52930;51.464;11.764;2022-08-06T07:43:12;3.70;;;0.40;;
66129;SDS011;52930;51.464;11.764;2022-08-06T07:45:41;3.83;;;0.65;;
66129;SDS011;52930;51.464;11.764;2022-08-06T07:48:09;6.03;;;0.50;;
66129;SDS011;52930;51.464;11.764;2022-08-06T07:50:35;3.47;;;0.60;;
66129;SDS011;52930;51.464;11.764;2022-08-06T07:53:01;4.15;;;0.63;;
66129;SDS011;52930;51.464;11.764;2022-08-06T07:55:27;4.17;;;0.70;;
66129;SDS011;52930;51.464;11.764;2022-08-06T07:57:53;4.25;;;0.73;;
66129;SDS011;52930;51.464;11.764;2022-08-06T08:00:20;2.72;;;0.60;;
66129;SDS011;52930;51.464;11.764;2022-08-06T08:02:46;3.40;;;0.60;;
66129;SDS011;52930;51.464;11.764;2022-08-06T08:05:31;2.58;;;0.60;;
66129;SDS011;52930;51.464;11.764;2022-08-06T08:08:15;2.35;;;0.30;;
66129;SDS011;52930;51.464;11.764;2022-08-06T08:10:41;2.93;;;0.50;;
66129;SDS011;52930;51.464;11.764;2022-08-06T08:13:07;3.38;;;0.63;;
66129;SDS011;52930;51.464;11.764;2022-08-06T08:15:34;2.50;;;0.40;;
66129;SDS011;52930;51.464;11.764;2022-08-06T08:17:59;3.43;;;0.40;;
66129;SDS011;52930;51.464;11.764;2022-08-06T08:20:26;2.87;;;0.60;;
66129;SDS011;52930;51.464;11.764;2022-08-06T08:22:53;2.28;;;0.40;;
66129;SDS011;52930;51.464;11.764;2022-08-06T08:25:19;3.30;;;0.40;;
66129;SDS011;52930;51.464;11.764;2022-08-06T08:27:44;4.50;;;0.40;;
66129;SDS011;52930;51.464;11.764;2022-08-06T08:30:10;2.87;;;0.30;;
66129;SDS011;52930;51.464;11.764;2022-08-06T08:32:36;2.03;;;0.40;;
66129;SDS011;52930;51.464;11.764;2022-08-06T08:35:01;3.83;;;0.43;;
66129;SDS011;52930;51.464;11.764;2022-08-06T08:37:27;5.23;;;0.60;;
66129;SDS011;52930;51.464;11.764;2022-08-06T08:39:53;3.63;;;0.60;;
66129;SDS011;52930;51.464;11.764;2022-08-06T08:42:20;3.00;;;0.40;;
66129;SDS011;52930;51.464;11.764;2022-08-06T08:44:54;2.85;;;0.40;;
66129;SDS011;52930;51.464;11.764;2022-08-06T08:47:19;3.37;;;0.50;;
66129;SDS011;52930;51.464;11.764;2022-08-06T08:49:46;2.83;;;0.60;;
66129;SDS011;52930;51.464;11.764;2022-08-06T08:52:13;3.80;;;0.43;;
66129;SDS011;52930;51.464;11.764;2022-08-06T08:54:42;2.75;;;0.52;;
66129;SDS011;52930;51.464;11.764;2022-08-06T08:57:09;4.20;;;0.63;;
66129;SDS011;52930;51.464;11.764;2022-08-06T08:59:35;2.85;;;0.50;;
66129;SDS011;52930;51.464;11.764;2022-08-06T09:02:01;2.40;;;0.50;;
66129;SDS011;52930;51.464;11.764;2022-08-06T09:04:29;4.93;;;0.40;;
66129;SDS011;52930;51.464;11.764;2022-08-06T09:06:56;2.10;;;0.40;;
66129;SDS011;52930;51.464;11.764;2022-08-06T09:09:21;2.30;;;0.50;;
66129;SDS011;52930;51.464;11.764;2022-08-06T09:11:48;3.75;;;0.60;;
66129;SDS011;52930;51.464;11.764;2022-08-06T09:14:13;4.17;;;0.57;;
66129;SDS011;52930;51.464;11.764;2022-08-06T09:16:38;3.55;;;0.50;;
66129;SDS011;52930;51.464;11.764;2022-08-06T09:19:04;3.57;;;0.73;;
66129;SDS011;52930;51.464;11.764;2022-08-06T09:21:31;2.70;;;0.60;;
66129;SDS011;52930;51.464;11.764;2022-08-06T09:23:58;3.40;;;0.50;;
66129;SDS011;52930;51.464;11.764;2022-08-06T09:26:23;4.10;;;0.50;;
66129;SDS011;52930;51.464;11.764;2022-08-06T09:28:49;3.17;;;0.60;;
66129;SDS011;52930;51.464;11.764;2022-08-06T09:31:16;3.03;;;0.40;;
66129;SDS011;52930;51.464;11.764;2022-08-06T09:33:52;4.10;;;0.57;;
66129;SDS011;52930;51.464;11.764;2022-08-06T09:36:25;3.78;;;0.63;;
66129;SDS011;52930;51.464;11.764;2022-08-06T09:38:52;2.50;;;0.30;;
66129;SDS011;52930;51.464;11.764;2022-08-06T09:41:21;3.80;;;0.40;;
66129;SDS011;52930;51.464;11.764;2022-08-06T09:43:49;2.92;;;0.60;;
66129;SDS011;52930;51.464;11.764;2022-08-06T09:46:16;5.50;;;0.82;;
66129;SDS011;52930;51.464;11.764;2022-08-06T09:48:59;2.97;;;0.38;;
66129;SDS011;52930;51.464;11.764;2022-08-06T09:51:26;3.70;;;0.55;;
66129;SDS011;52930;51.464;11.764;2022-08-06T09:53:55;3.27;;;0.67;;
66129;SDS011;52930;51.464;11.764;2022-08-06T09:56:21;3.55;;;0.30;;
66129;SDS011;52930;51.464;11.764;2022-08-06T09:58:47;6.23;;;0.53;;
66129;SDS011;52930;51.464;11.764;2022-08-06T10:01:14;3.30;;;0.33;;
66129;SDS011;52930;51.464;11.764;2022-08-06T10:03:40;3.13;;;0.47;;
66129;SDS011;52930;51.464;11.764;2022-08-06T10:06:07;2.40;;;0.33;;
66129;SDS011;52930;51.464;11.764;2022-08-06T10:08:37;2.15;;;0.35;;
66129;SDS011;52930;51.464;11.764;2022-08-06T10:11:03;3.35;;;0.57;;
66129;SDS011;52930;51.464;11.764;2022-08-06T10:13:29;2.87;;;0.50;;
66129;SDS011;52930;51.464;11.764;2022-08-06T10:15:56;6.82;;;0.40;;
66129;SDS011;52930;51.464;11.764;2022-08-06T10:18:29;2.30;;;0.30;;
66129;SDS011;52930;51.464;11.764;2022-08-06T10:21:06;2.27;;;0.40;;
66129;SDS011;52930;51.464;11.764;2022-08-06T10:23:37;2.55;;;0.60;;
66129;SDS011;52930;51.464;11.764;2022-08-06T10:26:05;2.72;;;0.50;;
66129;SDS011;52930;51.464;11.764;2022-08-06T10:28:34;2.63;;;0.50;;
66129;SDS011;52930;51.464;11.764;2022-08-06T10:31:04;3.33;;;0.60;;
66129;SDS011;52930;51.464;11.764;2022-08-06T10:33:32;3.90;;;0.50;;
66129;SDS011;52930;51.464;11.764;2022-08-06T10:36:07;3.40;;;0.38;;
66129;SDS011;52930;51.464;11.764;2022-08-06T10:38:35;3.05;;;0.50;;
66129;SDS011;52930;51.464;11.764;2022-08-06T10:41:03;2.70;;;0.40;;
66129;SDS011;52930;51.464;11.764;2022-08-06T10:43:31;3.85;;;0.68;;
66129;SDS011;52930;51.464;11.764;2022-08-06T10:45:59;2.73;;;0.50;;
66129;SDS011;52930;51.464;11.764;2022-08-06T10:48:29;3.25;;;0.40;;
66129;SDS011;52930;51.464;11.764;2022-08-06T10:50:55;2.55;;;0.52;;
66129;SDS011;52930;51.464;11.764;2022-08-06T10:53:20;3.60;;;0.30;;
66129;SDS011;52930;51.464;11.764;2022-08-06T10:55:46;2.67;;;0.40;;
66129;SDS011;52930;51.464;11.764;2022-08-06T10:58:12;2.33;;;0.40;;
66129;SDS011;52930;51.464;11.764;2022-08-06T11:00:37;3.60;;;0.50;;
66129;SDS011;52930;51.464;11.764;2022-08-06T11:05:34;3.10;;;0.60;;
66129;SDS011;52930;51.464;11.764;2022-08-06T11:08:10;4.07;;;0.50;;
66129;SDS011;52930;51.464;11.764;2022-08-06T11:11:26;2.50;;;0.40;;
66129;SDS011;52930;51.464;11.764;2022-08-06T11:13:49;3.00;;;0.40;;
66129;SDS011;52930;51.464;11.764;2022-08-06T11:16:23;2.92;;;0.50;;
66129;SDS011;52930;51.464;11.764;2022-08-06T11:21:34;5.13;;;0.40;;
66129;SDS011;52930;51.464;11.764;2022-08-06T11:24:02;2.60;;;0.40;;
66129;SDS011;52930;51.464;11.764;2022-08-06T11:26:34;2.50;;;0.30;;
66129;SDS011;52930;51.464;11.764;2022-08-06T11:29:03;2.65;;;0.40;;
66129;SDS011;52930;51.464;11.764;2022-08-06T11:31:50;4.55;;;0.70;;
66129;SDS011;52930;51.464;11.764;2022-08-06T11:34:19;2.87;;;0.40;;
66129;SDS011;52930;51.464;11.764;2022-08-06T11:39:21;3.00;;;0.50;;
66129;SDS011;52930;51.464;11.764;2022-08-06T11:41:55;2.03;;;0.30;;
66129;SDS011;52930;51.464;11.764;2022-08-06T11:44:28;2.78;;;0.40;;
66129;SDS011;52930;51.464;11.764;2022-08-06T11:49:45;3.00;;;0.50;;
66129;SDS011;52930;51.464;11.764;2022-08-06T11:52:37;2.60;;;0.50;;
66129;SDS011;52930;51.464;11.764;2022-08-06T11:55:05;4.65;;;0.57;;
66129;SDS011;52930;51.464;11.764;2022-08-06T11:57:32;2.85;;;0.40;;
66129;SDS011;52930;51.464;11.764;2022-08-06T12:05:06;2.72;;;0.55;;
66129;SDS011;52930;51.464;11.764;2022-08-06T12:07:38;2.53;;;0.50;;
66129;SDS011;52930;51.464;11.764;2022-08-06T12:17:30;3.03;;;0.50;;
66129;SDS011;52930;51.464;11.764;2022-08-06T12:19:59;3.70;;;0.40;;
66129;SDS011;52930;51.464;11.764;2022-08-06T12:22:28;2.50;;;0.50;;
66129;SDS011;52930;51.464;11.764;2022-08-06T12:24:56;3.25;;;0.52;;
66129;SDS011;52930;51.464;11.764;2022-08-06T12:27:23;2.05;;;0.50;;
66129;SDS011;52930;51.464;11.764;2022-08-06T12:29:56;2.80;;;0.40;;
66129;SDS011;52930;51.464;11.764;2022-08-06T12:34:55;2.25;;;0.30;;
66129;SDS011;52930;51.464;11.764;2022-08-06T12:37:31;3.08;;;0.30;;
66129;SDS011;52930;51.464;11.764;2022-08-06T12:40:09;1.88;;;0.30;;
66129;SDS011;52930;51.464;11.764;2022-08-06T12:45:24;1.75;;;0.30;;
66129;SDS011;52930;51.464;11.764;2022-08-06T12:48:04;4.22;;;0.30;;
66129;SDS011;52930;51.464;11.764;2022-08-06T12:50:33;3.53;;;0.43;;
66129;SDS011;52930;51.464;11.764;2022-08-06T12:55:33;1.83;;;0.30;;
66129;SDS011;52930;51.464;11.764;2022-08-06T12:58:07;2.30;;;0.50;;
66129;SDS011;52930;51.464;11.764;2022-08-06T13:00:34;2.17;;;0.30;;
66129;SDS011;52930;51.464;11.764;2022-08-06T13:03:00;2.72;;;0.40;;
66129;SDS011;52930;51.464;11.764;2022-08-06T13:05:25;2.83;;;0.40;;
66129;SDS011;52930;51.464;11.764;2022-08-06T13:07:56;2.83;;;0.35;;
66129;SDS011;52930;51.464;11.764;2022-08-06T13:10:22;2.83;;;0.40;;
66129;SDS011;52930;51.464;11.764;2022-08-06T13:15:20;4.47;;;0.60;;
66129;SDS011;52930;51.464;11.764;2022-08-06T13:23:06;2.30;;;0.40;;
66129;SDS011;52930;51.464;11.764;2022-08-06T13:25:42;2.88;;;0.50;;
66129;SDS011;52930;51.464;11.764;2022-08-06T13:28:09;2.30;;;0.30;;
66129;SDS011;52930;51.464;11.764;2022-08-06T13:30:35;3.10;;;0.40;;
66129;SDS011;52930;51.464;11.764;2022-08-06T13:35:44;2.58;;;0.40;;
66129;SDS011;52930;51.464;11.764;2022-08-06T13:38:11;3.13;;;0.47;;
66129;SDS011;52930;51.464;11.764;2022-08-06T13:40:41;2.73;;;0.47;;
66129;SDS011;52930;51.464;11.764;2022-08-06T13:43:10;2.63;;;0.40;;
66129;SDS011;52930;51.464;11.764;2022-08-06T13:45:37;3.35;;;0.47;;
66129;SDS011;52930;51.464;11.764;2022-08-06T13:48:09;2.80;;;0.30;;
66129;SDS011;52930;51.464;11.764;2022-08-06T13:50:35;4.65;;;0.47;;
66129;SDS011;52930;51.464;11.764;2022-08-06T13:53:06;3.45;;;0.40;;
66129;SDS011;52930;51.464;11.764;2022-08-06T13:55:33;2.78;;;0.30;;
66129;SDS011;52930;51.464;11.764;2022-08-06T13:57:59;4.93;;;0.30;;
66129;SDS011;52930;51.464;11.764;2022-08-06T14:00:24;2.87;;;0.40;;
66129;SDS011;52930;51.464;11.764;2022-08-06T14:02:50;3.00;;;0.47;;
66129;SDS011;52930;51.464;11.764;2022-08-06T14:05:19;2.38;;;0.30;;
66129;SDS011;52930;51.464;11.764;2022-08-06T14:07:45;2.27;;;0.50;;
66129;SDS011;52930;51.464;11.764;2022-08-06T14:10:10;3.87;;;0.30;;
66129;SDS011;52930;51.464;11.764;2022-08-06T14:12:36;1.70;;;0.30;;
66129;SDS011;52930;51.464;11.764;2022-08-06T14:15:02;2.08;;;0.40;;
66129;SDS011;52930;51.464;11.764;2022-08-06T14:17:29;3.53;;;0.30;;
66129;SDS011;52930;51.464;11.764;2022-08-06T14:19:54;2.03;;;0.22;;
66129;SDS011;52930;51.464;11.764;2022-08-06T14:22:20;3.07;;;0.50;;
66129;SDS011;52930;51.464;11.764;2022-08-06T14:24:45;2.80;;;0.30;;
66129;SDS011;52930;51.464;11.764;2022-08-06T14:27:11;2.30;;;0.30;;
66129;SDS011;52930;51.464;11.764;2022-08-06T14:29:36;1.90;;;0.20;;
66129;SDS011;52930;51.464;11.764;2022-08-06T14:32:02;2.07;;;0.30;;
66129;SDS011;52930;51.464;11.764;2022-08-06T14:34:28;2.45;;;0.52;;
66129;SDS011;52930;51.464;11.764;2022-08-06T14:36:54;2.55;;;0.50;;
66129;SDS011;52930;51.464;11.764;2022-08-06T14:39:20;1.90;;;0.40;;
66129;SDS011;52930;51.464;11.764;2022-08-06T14:41:45;5.73;;;0.50;;
66129;SDS011;52930;51.464;11.764;2022-08-06T14:44:29;3.05;;;0.40;;
66129;SDS011;52930;51.464;11.764;2022-08-06T14:47:13;2.95;;;0.43;;
66129;SDS011;52930;51.464;11.764;2022-08-06T14:49:38;2.50;;;0.30;;
66129;SDS011;52930;51.464;11.764;2022-08-06T14:52:04;2.80;;;0.30;;
66129;SDS011;52930;51.464;11.764;2022-08-06T14:54:31;7.10;;;0.80;;
66129;SDS011;52930;51.464;11.764;2022-08-06T14:56:56;5.77;;;0.33;;
66129;SDS011;52930;51.464;11.764;2022-08-06T14:59:22;3.40;;;0.40;;
66129;SDS011;52930;51.464;11.764;2022-08-06T15:01:50;4.47;;;0.43;;
66129;SDS011;52930;51.464;11.764;2022-08-06T15:04:16;2.17;;;0.43;;
66129;SDS011;52930;51.464;11.764;2022-08-06T15:06:42;2.35;;;0.30;;
66129;SDS011;52930;51.464;11.764;2022-08-06T15:09:08;3.43;;;0.37;;
66129;SDS011;52930;51.464;11.764;2022-08-06T15:11:33;3.10;;;0.40;;
66129;SDS011;52930;51.464;11.764;2022-08-06T15:13:58;3.30;;;0.30;;
66129;SDS011;52930;51.464;11.764;2022-08-06T15:16:24;3.47;;;0.60;;
66129;SDS011;52930;51.464;11.764;2022-08-06T15:18:50;2.75;;;0.40;;
66129;SDS011;52930;51.464;11.764;2022-08-06T15:21:16;2.57;;;0.40;;
66129;SDS011;52930;51.464;11.764;2022-08-06T15:23:43;3.08;;;0.52;;
66129;SDS011;52930;51.464;11.764;2022-08-06T15:26:09;2.70;;;0.40;;
66129;SDS011;52930;51.464;11.764;2022-08-06T15:28:35;4.40;;;0.60;;
66129;SDS011;52930;51.464;11.764;2022-08-06T15:31:00;4.13;;;0.70;;
66129;SDS011;52930;51.464;11.764;2022-08-06T15:33:27;2.60;;;0.40;;
66129;SDS011;52930;51.464;11.764;2022-08-06T15:35:53;2.27;;;0.40;;
66129;SDS011;52930;51.464;11.764;2022-08-06T15:38:18;3.70;;;0.50;;
66129;SDS011;52930;51.464;11.764;2022-08-06T15:40:43;3.07;;;0.60;;
66129;SDS011;52930;51.464;11.764;2022-08-06T15:43:09;4.40;;;0.70;;
66129;SDS011;52930;51.464;11.764;2022-08-06T15:45:34;2.03;;;0.40;;
66129;SDS011;52930;51.464;11.764;2022-08-06T15:48:00;4.13;;;0.40;;
66129;SDS011;52930;51.464;11.764;2022-08-06T15:50:25;2.10;;;0.50;;
66129;SDS011;52930;51.464;11.764;2022-08-06T15:52:51;4.83;;;2.27;;
66129;SDS011;52930;51.464;11.764;2022-08-06T15:55:17;4.15;;;0.90;;
66129;SDS011;52930;51.464;11.764;2022-08-06T15:57:45;4.43;;;1.03;;